Terminal Aerodrome Forecast
Issued by NWS Sioux Falls, SD

Home | Current Version | Previous Version | Graphics & Text | Print | Product List | Glossary Off
Versions: 1 2 3 4 5 6 7 8 9 10 11 12 13 14 15 16 17 18 19 20 21

321
FTUS43 KFSD 221246 AAB
TAFFSD
TAF AMD
KFSD 221246Z 2213/2312 10005KT 5SM BR SCT080
     FM221400 15008KT P6SM SCT120 SCT250
     FM230500 14009KT P6SM VCTS BKN080CB
     FM230800 13007KT P6SM BKN080=

USA.gov is the U.S. government's official web portal to all federal, state and local government web resources and services.